Huvudsida
METAR-TAF:

METAR-TAF

Flygplatser :

Bardufoss flygplats

Bardufoss, Norge

latitud: 69-04N, longitud: 018-32E, höjd: 7 m

Aktuellt väderrapport

Denna rapport gjordes för 19 minuter sedan, klockan 02:50 UTC
Stilla vind
Temperatur 12°C
Fuktighet 100%
Tryck 998 hPa
Sikt 10 km eller mer

METAR: ENDU 180250Z AUTO 00000KT 9999 SCT080/// BKN150/// 12/12 Q0998 RMK WIND 1100FT VRB02KT WIND 2200FT 15012KT

Tid: 05:09 (03:09 UTC)

Väderprognos

Prognos gäller från 18 kl. 00 UTC till 18 kl. 24 UTC
Vind 5 kt varierande vindriktning
Sikt 10 km eller mer
Få moln på en höjd av 3000 ft
Brutna moln på en höjd av 5000 ft
Blir
från 18 kl. 08 UTC till 18 kl. 10 UTC
Vind 10 kt från syd
Temporärt
från 18 kl. 09 UTC till 18 kl. 15 UTC
Vind 15 kt från syd i byarna ända upp till 25 kt

TAF: ENDU 1800/1824 VRB05KT 9999 FEW030 BKN050 BECMG 1808/1810 18010KT TEMPO 1809/1815 18015G25KT

Aktuella väderrapporter och prognoser från 4000 flygplatser (METAR- och TAF-rapporter).

De tillgängliga stationerna syns som gula och röda prickar på kartan.

För musen över prickarna för att se namnen på stationerna.

Klicka sedan för att få väderrapporter och prognoser.

För att ändra kartan: Klicka på de gröna knapparna med ett svart kors på för att zooma in; den gröna knappen med ett streck på för att zooma ut; eller på de gröna pilarna för angränsande kartor.


METAR-TAF: